Wetterdaten: aktuell Sonntag, 16.05.2021 23:30
Datum Zeit Temp. I. Temp. A. Temp. Garten Feuchte I. Feuchte A. LF Garten Luftdruck Regen Wind Richtung Richtung Sonnenschein Taupunkt Windchill
16.05.2021 23:30 25,3 C 14,8 C 14,9 C 40 % 73 % 67 % 1000,4 hPa 0,0 l/m 0,0 km/h (0 Bft) O-NO 70 0 min 10,0 C 14,8 C
16.05.2021 22:30 24,8 C 15,0 C 15,4 C 38 % 69 % 63 % 1000,4 hPa 0,0 l/m 0,0 km/h (0 Bft) W-NW 295 0 min 9,4 C 15,0 C
16.05.2021 21:30 24,8 C 15,7 C 16,0 C 38 % 63 % 61 % 1001,3 hPa 0,0 l/m 0,0 km/h (0 Bft) SW 225 0 min 8,7 C 15,7 C
16.05.2021 20:30 25,0 C 16,2 C 16,9 C 37 % 59 % 58 % 1000,3 hPa 0,0 l/m 0,0 km/h (0 Bft) SW 235 0 min 8,2 C 16,2 C
16.05.2021 19:30 25,0 C 17,5 C 18,1 C 36 % 53 % 56 % 1001,2 hPa 0,0 l/m 0,0 km/h (0 Bft) W 260 0 min 7,8 C 17,5 C
16.05.2021 18:30 26,1 C 18,8 C 19,3 C 37 % 47 % 53 % 1001,1 hPa 0,0 l/m 0,0 km/h (0 Bft) SW 230 0 min 7,2 C 18,8 C
16.05.2021 17:30 26,1 C 21,1 C 19,4 C 39 % 37 % 51 % 1000,9 hPa 0,0 l/m 0,0 km/h (0 Bft) N-NO 20 0 min 5,8 C 21,1 C
16.05.2021 16:30 26,2 C 20,6 C 19,4 C 39 % 37 % 51 % 1001,0 hPa 0,0 l/m 0,0 km/h (0 Bft) - - 0 0 min 5,4 C 20,6 C
16.05.2021 15:30 26,4 C 20,3 C 19,4 C 39 % 39 % 54 % 1002,0 hPa 0,0 l/m 0,0 km/h (0 Bft) N-NW 335 0 min 5,9 C 20,3 C
16.05.2021 14:30 26,8 C 19,1 C 19,3 C 39 % 46 % 56 % 1003,1 hPa 0,0 l/m 0,0 km/h (0 Bft) N-NO 30 0 min 7,2 C 19,1 C
16.05.2021 13:30 27,4 C 18,7 C 19,3 C 39 % 48 % 59 % 1003,1 hPa 0,0 l/m 0,0 km/h (0 Bft) N-NW 330 27 min 7,5 C 18,7 C
16.05.2021 12:30 27,9 C 17,7 C 18,3 C 38 % 54 % 63 % 1003,2 hPa 0,0 l/m 0,0 km/h (0 Bft) N-NO 15 32 min 8,3 C 17,7 C
16.05.2021 11:30 27,7 C 16,6 C 16,8 C 38 % 58 % 66 % 1003,3 hPa 0,0 l/m 0,0 km/h (0 Bft) NO 50 8 min 8,3 C 16,6 C
16.05.2021 10:30 27,5 C 14,6 C 15,0 C 39 % 63 % 70 % 1004,5 hPa 0,0 l/m 0,0 km/h (0 Bft) N-NW 330 0 min 7,6 C 14,6 C
16.05.2021 09:30 26,8 C 14,2 C 13,5 C 41 % 70 % 78 % 1003,5 hPa 0,0 l/m 0,0 km/h (0 Bft) NW 320 0 min 8,8 C 14,2 C
16.05.2021 08:30 25,6 C 12,4 C 12,1 C 43 % 76 % 80 % 1003,6 hPa 0,3 l/m 0,0 km/h (0 Bft) N-NO 15 0 min 8,3 C 12,4 C
16.05.2021 07:30 24,5 C 11,6 C 11,0 C 46 % 80 % 83 % 1002,7 hPa 0,0 l/m 0,0 km/h (0 Bft) NO 40 0 min 8,3 C 11,6 C
16.05.2021 06:30 23,7 C 10,6 C 10,6 C 46 % 84 % 82 % 1002,8 hPa 0,6 l/m 0,0 km/h (0 Bft) O-SO 120 0 min 8,0 C 10,6 C
16.05.2021 05:40 23,7 C 10,6 C 11,0 C 47 % 85 % 81 % 1002,8 hPa 0,9 l/m 0,0 km/h (0 Bft) NO 35 0 min 8,2 C 10,6 C
16.05.2021 04:40 23,9 C 11,4 C 11,8 C 47 % 80 % 80 % 1002,7 hPa 0,0 l/m 0,0 km/h (0 Bft) N-NO 15 0 min 8,1 C 11,4 C
16.05.2021 03:40 24,0 C 11,9 C 12,2 C 47 % 81 % 80 % 1000,6 hPa 0,0 l/m 0,0 km/h (0 Bft) O 100 0 min 8,7 C 11,9 C
16.05.2021 02:40 23,9 C 12,6 C 12,6 C 47 % 83 % 79 % 1001,6 hPa 0,0 l/m 0,0 km/h (0 Bft) N 355 0 min 9,8 C 12,6 C
16.05.2021 01:40 24,1 C 12,7 C 12,8 C 46 % 82 % 78 % 1000,5 hPa 0,0 l/m 0,0 km/h (0 Bft) SO 135 0 min 9,7 C 12,7 C
16.05.2021 00:40 24,2 C 12,8 C 13,0 C 44 % 82 % 77 % 1000,5 hPa 0,0 l/m 0,0 km/h (0 Bft) S 170 0 min 9,8 C 12,8 C
16.05.2021 00:00 24,4 C 13,0 C 13,3 C 44 % 80 % 76 % 1000,5 hPa 0,0 l/m 0,0 km/h (0 Bft) W 260 0 min 9,6 C 13,0 C
_ Min-Zeit 06:05 05:35 06:25 18:45 17:45 16:25 20:10 - 00:00 - - - 17:20 05:35
Minimum _ 23,6 C 10,6 C 10,6 C 35 % 35 % 50 % 999,2 hPa - 0,0 km/h (0 Bft) - - - 5,3 C 10,6 C
_ Max-Zeit 11:45 17:45 15:35 02:40 05:45 07:15 10:00 05:30 00:00 - - 12:40 01:15 17:45
Maximum _ 28,0 C 22,0 C 19,5 C 47 % 86 % 84 % 1004,5 hPa 0,3 l/m 0,0 km/h
W (0 Bft)
- - 7 min 10,2 C 22,0 C
Durchschnitt _ 25,5 C 15,4 C 15,4 C 41 % 64 % 68 % 1001,9 hPa #1,2 l/m 0,0 km/h (0 Bft) - - - #1:07 h 8,1 C 15,4 C